sensor_id;sensor_type;location;lat;lon;timestamp;temperature;humidity
9984;DHT22;16737;50.932;6.780;2024-03-17T00:01:12;10.10;95.30
9984;DHT22;16737;50.932;6.780;2024-03-17T00:03:39;10.20;95.40
9984;DHT22;16737;50.932;6.780;2024-03-17T00:06:06;10.10;95.30
9984;DHT22;16737;50.932;6.780;2024-03-17T00:08:34;10.10;95.30
9984;DHT22;16737;50.932;6.780;2024-03-17T00:11:00;10.10;95.30
9984;DHT22;16737;50.932;6.780;2024-03-17T00:13:28;10.10;95.30
9984;DHT22;16737;50.932;6.780;2024-03-17T00:15:55;10.00;95.20
9984;DHT22;16737;50.932;6.780;2024-03-17T00:18:21;10.00;95.20
9984;DHT22;16737;50.932;6.780;2024-03-17T00:20:48;10.00;95.20
9984;DHT22;16737;50.932;6.780;2024-03-17T00:23:15;10.00;95.20
9984;DHT22;16737;50.932;6.780;2024-03-17T00:25:42;9.90;95.70
9984;DHT22;16737;50.932;6.780;2024-03-17T00:28:09;9.90;95.70
9984;DHT22;16737;50.932;6.780;2024-03-17T00:30:37;9.90;95.70
9984;DHT22;16737;50.932;6.780;2024-03-17T00:33:03;9.90;95.70
9984;DHT22;16737;50.932;6.780;2024-03-17T00:35:31;9.90;95.70
9984;DHT22;16737;50.932;6.780;2024-03-17T00:37:57;9.80;95.60
9984;DHT22;16737;50.932;6.780;2024-03-17T00:40:25;9.80;95.60
9984;DHT22;16737;50.932;6.780;2024-03-17T00:42:51;9.70;95.60
9984;DHT22;16737;50.932;6.780;2024-03-17T00:45:19;9.70;95.60
9984;DHT22;16737;50.932;6.780;2024-03-17T00:47:46;9.70;95.60
9984;DHT22;16737;50.932;6.780;2024-03-17T00:50:13;9.70;95.60
9984;DHT22;16737;50.932;6.780;2024-03-17T00:52:39;9.70;95.60
9984;DHT22;16737;50.932;6.780;2024-03-17T00:55:06;9.60;95.60
9984;DHT22;16737;50.932;6.780;2024-03-17T00:57:36;9.60;95.60
9984;DHT22;16737;50.932;6.780;2024-03-17T01:00:05;9.60;95.70
9984;DHT22;16737;50.932;6.780;2024-03-17T01:02:31;9.60;95.70
9984;DHT22;16737;50.932;6.780;2024-03-17T01:04:59;9.60;95.70
9984;DHT22;16737;50.932;6.780;2024-03-17T01:07:25;9.60;95.70
9984;DHT22;16737;50.932;6.780;2024-03-17T01:09:52;9.50;95.70
9984;DHT22;16737;50.932;6.780;2024-03-17T01:12:19;9.50;95.70
9984;DHT22;16737;50.932;6.780;2024-03-17T01:14:48;9.60;95.70
9984;DHT22;16737;50.932;6.780;2024-03-17T01:17:14;9.60;95.80
9984;DHT22;16737;50.932;6.780;2024-03-17T01:19:41;9.50;95.70
9984;DHT22;16737;50.932;6.780;2024-03-17T01:22:07;9.50;95.70
9984;DHT22;16737;50.932;6.780;2024-03-17T01:24:34;9.50;95.70
9984;DHT22;16737;50.932;6.780;2024-03-17T01:27:00;9.50;95.70
9984;DHT22;16737;50.932;6.780;2024-03-17T01:29:28;9.50;95.70
9984;DHT22;16737;50.932;6.780;2024-03-17T01:31:55;9.50;95.70
9984;DHT22;16737;50.932;6.780;2024-03-17T01:34:22;9.40;95.70
9984;DHT22;16737;50.932;6.780;2024-03-17T01:36:48;9.40;95.70
9984;DHT22;16737;50.932;6.780;2024-03-17T01:39:16;9.40;95.70
9984;DHT22;16737;50.932;6.780;2024-03-17T01:41:44;9.40;95.70
9984;DHT22;16737;50.932;6.780;2024-03-17T01:44:22;9.40;95.70
9984;DHT22;16737;50.932;6.780;2024-03-17T01:46:50;9.40;95.70
9984;DHT22;16737;50.932;6.780;2024-03-17T01:49:18;9.40;95.60
9984;DHT22;16737;50.932;6.780;2024-03-17T01:51:47;9.40;95.60
9984;DHT22;16737;50.932;6.780;2024-03-17T01:54:15;9.30;95.60
9984;DHT22;16737;50.932;6.780;2024-03-17T01:56:42;9.30;95.60
9984;DHT22;16737;50.932;6.780;2024-03-17T01:59:09;9.30;95.60
9984;DHT22;16737;50.932;6.780;2024-03-17T02:01:37;9.30;95.60
9984;DHT22;16737;50.932;6.780;2024-03-17T02:04:04;9.20;95.50
9984;DHT22;16737;50.932;6.780;2024-03-17T02:06:33;9.20;95.50
9984;DHT22;16737;50.932;6.780;2024-03-17T02:08:59;9.20;95.50
9984;DHT22;16737;50.932;6.780;2024-03-17T02:11:28;9.20;95.50
9984;DHT22;16737;50.932;6.780;2024-03-17T02:13:56;9.10;95.50
9984;DHT22;16737;50.932;6.780;2024-03-17T02:16:23;9.10;95.50
9984;DHT22;16737;50.932;6.780;2024-03-17T02:18:53;9.10;95.50
9984;DHT22;16737;50.932;6.780;2024-03-17T02:21:21;9.10;95.50
9984;DHT22;16737;50.932;6.780;2024-03-17T02:23:50;9.00;95.50
9984;DHT22;16737;50.932;6.780;2024-03-17T02:26:17;9.00;95.50
9984;DHT22;16737;50.932;6.780;2024-03-17T02:28:45;9.00;95.50
9984;DHT22;16737;50.932;6.780;2024-03-17T02:31:14;9.00;95.50
9984;DHT22;16737;50.932;6.780;2024-03-17T02:33:42;9.00;95.50
9984;DHT22;16737;50.932;6.780;2024-03-17T02:36:11;8.90;95.40
9984;DHT22;16737;50.932;6.780;2024-03-17T02:38:38;8.90;95.40
9984;DHT22;16737;50.932;6.780;2024-03-17T02:41:25;8.90;95.40
9984;DHT22;16737;50.932;6.780;2024-03-17T02:43:52;8.90;95.40
9984;DHT22;16737;50.932;6.780;2024-03-17T02:46:20;8.80;95.40
9984;DHT22;16737;50.932;6.780;2024-03-17T02:48:50;8.80;95.40
9984;DHT22;16737;50.932;6.780;2024-03-17T02:51:20;8.80;95.50
9984;DHT22;16737;50.932;6.780;2024-03-17T02:53:49;8.70;95.40
9984;DHT22;16737;50.932;6.780;2024-03-17T02:56:17;8.70;95.50
9984;DHT22;16737;50.932;6.780;2024-03-17T02:58:46;8.70;95.50
9984;DHT22;16737;50.932;6.780;2024-03-17T03:01:13;8.70;95.50
9984;DHT22;16737;50.932;6.780;2024-03-17T03:03:41;8.70;95.50
9984;DHT22;16737;50.932;6.780;2024-03-17T03:06:08;8.70;95.50
9984;DHT22;16737;50.932;6.780;2024-03-17T03:08:43;8.70;95.50
9984;DHT22;16737;50.932;6.780;2024-03-17T03:11:16;8.70;95.50
9984;DHT22;16737;50.932;6.780;2024-03-17T03:13:44;8.60;95.50
9984;DHT22;16737;50.932;6.780;2024-03-17T03:16:13;8.60;95.40
9984;DHT22;16737;50.932;6.780;2024-03-17T03:18:41;8.60;95.40
9984;DHT22;16737;50.932;6.780;2024-03-17T03:21:10;8.60;95.40
9984;DHT22;16737;50.932;6.780;2024-03-17T03:23:37;8.50;95.40
9984;DHT22;16737;50.932;6.780;2024-03-17T03:26:05;8.50;95.40
9984;DHT22;16737;50.932;6.780;2024-03-17T03:28:34;8.50;95.40
9984;DHT22;16737;50.932;6.780;2024-03-17T03:31:04;8.50;95.50
9984;DHT22;16737;50.932;6.780;2024-03-17T03:33:32;8.40;95.40
9984;DHT22;16737;50.932;6.780;2024-03-17T03:35:59;8.40;95.40
9984;DHT22;16737;50.932;6.780;2024-03-17T03:38:34;8.40;95.50
9984;DHT22;16737;50.932;6.780;2024-03-17T03:41:07;8.30;95.40
9984;DHT22;16737;50.932;6.780;2024-03-17T03:43:34;8.30;95.50
9984;DHT22;16737;50.932;6.780;2024-03-17T03:46:03;8.30;95.40
9984;DHT22;16737;50.932;6.780;2024-03-17T03:48:31;8.30;95.50
9984;DHT22;16737;50.932;6.780;2024-03-17T03:51:03;8.20;95.50
9984;DHT22;16737;50.932;6.780;2024-03-17T03:53:31;8.20;95.50
9984;DHT22;16737;50.932;6.780;2024-03-17T03:55:58;8.20;95.60
9984;DHT22;16737;50.932;6.780;2024-03-17T03:58:27;8.20;95.60
9984;DHT22;16737;50.932;6.780;2024-03-17T04:00:54;8.20;95.60
9984;DHT22;16737;50.932;6.780;2024-03-17T04:03:23;8.20;95.60
9984;DHT22;16737;50.932;6.780;2024-03-17T04:05:50;8.20;95.60
9984;DHT22;16737;50.932;6.780;2024-03-17T04:08:19;8.20;95.60
9984;DHT22;16737;50.932;6.780;2024-03-17T04:10:49;8.10;95.60
9984;DHT22;16737;50.932;6.780;2024-03-17T04:13:17;8.10;95.60
9984;DHT22;16737;50.932;6.780;2024-03-17T04:15:44;8.10;95.60
9984;DHT22;16737;50.932;6.780;2024-03-17T04:18:11;8.10;95.70
9984;DHT22;16737;50.932;6.780;2024-03-17T04:20:41;8.10;95.70
9984;DHT22;16737;50.932;6.780;2024-03-17T04:23:08;8.10;95.70
9984;DHT22;16737;50.932;6.780;2024-03-17T04:25:36;8.10;95.70
9984;DHT22;16737;50.932;6.780;2024-03-17T04:28:03;8.10;95.80
9984;DHT22;16737;50.932;6.780;2024-03-17T04:30:31;8.10;96.10
9984;DHT22;16737;50.932;6.780;2024-03-17T04:32:58;8.10;95.80
9984;DHT22;16737;50.932;6.780;2024-03-17T04:35:25;8.10;95.80
9984;DHT22;16737;50.932;6.780;2024-03-17T04:37:54;8.10;95.90
9984;DHT22;16737;50.932;6.780;2024-03-17T04:40:22;8.20;95.90
9984;DHT22;16737;50.932;6.780;2024-03-17T04:42:49;8.20;95.90
9984;DHT22;16737;50.932;6.780;2024-03-17T04:45:16;8.20;95.90
9984;DHT22;16737;50.932;6.780;2024-03-17T04:47:44;8.20;96.00
9984;DHT22;16737;50.932;6.780;2024-03-17T04:50:12;8.20;96.00
9984;DHT22;16737;50.932;6.780;2024-03-17T04:52:40;8.20;96.00
9984;DHT22;16737;50.932;6.780;2024-03-17T04:55:08;8.20;96.00
9984;DHT22;16737;50.932;6.780;2024-03-17T04:57:35;8.30;96.10
9984;DHT22;16737;50.932;6.780;2024-03-17T05:00:03;8.30;96.00
9984;DHT22;16737;50.932;6.780;2024-03-17T05:02:32;8.30;96.00
9984;DHT22;16737;50.932;6.780;2024-03-17T05:05:00;8.30;96.00
9984;DHT22;16737;50.932;6.780;2024-03-17T05:07:27;8.30;96.00
9984;DHT22;16737;50.932;6.780;2024-03-17T05:09:54;8.30;96.00
9984;DHT22;16737;50.932;6.780;2024-03-17T05:12:22;8.30;96.00
9984;DHT22;16737;50.932;6.780;2024-03-17T05:14:49;8.30;96.00
9984;DHT22;16737;50.932;6.780;2024-03-17T05:17:16;8.20;95.90
9984;DHT22;16737;50.932;6.780;2024-03-17T05:19:43;8.20;96.20
9984;DHT22;16737;50.932;6.780;2024-03-17T05:22:10;8.20;96.20
9984;DHT22;16737;50.932;6.780;2024-03-17T05:24:37;8.20;95.90
9984;DHT22;16737;50.932;6.780;2024-03-17T05:27:05;8.20;95.90
9984;DHT22;16737;50.932;6.780;2024-03-17T05:29:34;8.10;95.80
9984;DHT22;16737;50.932;6.780;2024-03-17T05:32:03;8.10;95.90
9984;DHT22;16737;50.932;6.780;2024-03-17T05:34:30;8.10;95.80
9984;DHT22;16737;50.932;6.780;2024-03-17T05:36:58;8.00;95.80
9984;DHT22;16737;50.932;6.780;2024-03-17T05:39:27;8.00;95.80
9984;DHT22;16737;50.932;6.780;2024-03-17T05:41:54;8.00;95.80
9984;DHT22;16737;50.932;6.780;2024-03-17T05:44:21;8.00;95.80
9984;DHT22;16737;50.932;6.780;2024-03-17T05:46:50;7.90;95.90
9984;DHT22;16737;50.932;6.780;2024-03-17T05:49:18;7.90;95.90
9984;DHT22;16737;50.932;6.780;2024-03-17T05:51:46;7.90;95.90
9984;DHT22;16737;50.932;6.780;2024-03-17T05:54:13;7.90;95.90
9984;DHT22;16737;50.932;6.780;2024-03-17T05:56:41;7.90;95.90
9984;DHT22;16737;50.932;6.780;2024-03-17T05:59:08;7.90;95.90
9984;DHT22;16737;50.932;6.780;2024-03-17T06:01:35;7.90;95.90
9984;DHT22;16737;50.932;6.780;2024-03-17T06:04:04;7.90;96.00
9984;DHT22;16737;50.932;6.780;2024-03-17T06:06:31;7.90;95.90
9984;DHT22;16737;50.932;6.780;2024-03-17T06:08:59;7.80;95.90
9984;DHT22;16737;50.932;6.780;2024-03-17T06:11:26;7.80;95.90
9984;DHT22;16737;50.932;6.780;2024-03-17T06:13:53;7.80;96.00
9984;DHT22;16737;50.932;6.780;2024-03-17T06:16:20;7.80;96.00
9984;DHT22;16737;50.932;6.780;2024-03-17T06:18:48;7.80;96.00
9984;DHT22;16737;50.932;6.780;2024-03-17T06:21:18;7.80;96.10
9984;DHT22;16737;50.932;6.780;2024-03-17T06:23:45;7.80;96.10
9984;DHT22;16737;50.932;6.780;2024-03-17T06:26:12;7.80;96.10
9984;DHT22;16737;50.932;6.780;2024-03-17T06:28:39;7.80;96.10
9984;DHT22;16737;50.932;6.780;2024-03-17T06:31:08;7.80;96.20
9984;DHT22;16737;50.932;6.780;2024-03-17T06:33:36;7.80;96.30
9984;DHT22;16737;50.932;6.780;2024-03-17T06:36:03;7.80;96.40
9984;DHT22;16737;50.932;6.780;2024-03-17T06:38:33;7.80;96.50
9984;DHT22;16737;50.932;6.780;2024-03-17T06:41:00;7.80;96.60
9984;DHT22;16737;50.932;6.780;2024-03-17T06:43:27;7.90;96.70
9984;DHT22;16737;50.932;6.780;2024-03-17T06:45:55;7.90;96.70
9984;DHT22;16737;50.932;6.780;2024-03-17T06:48:23;8.00;96.80
9984;DHT22;16737;50.932;6.780;2024-03-17T06:50:50;8.00;96.80
9984;DHT22;16737;50.932;6.780;2024-03-17T06:53:19;8.10;96.80
9984;DHT22;16737;50.932;6.780;2024-03-17T06:55:54;8.10;96.80
9984;DHT22;16737;50.932;6.780;2024-03-17T06:58:22;8.20;96.90
9984;DHT22;16737;50.932;6.780;2024-03-17T07:00:56;8.30;96.80
9984;DHT22;16737;50.932;6.780;2024-03-17T07:03:25;8.30;96.80
9984;DHT22;16737;50.932;6.780;2024-03-17T07:05:53;8.30;96.80
9984;DHT22;16737;50.932;6.780;2024-03-17T07:08:22;8.40;96.80
9984;DHT22;16737;50.932;6.780;2024-03-17T07:10:58;8.40;96.80
9984;DHT22;16737;50.932;6.780;2024-03-17T07:13:29;8.50;97.00
9984;DHT22;16737;50.932;6.780;2024-03-17T07:15:57;8.50;96.90
9984;DHT22;16737;50.932;6.780;2024-03-17T07:18:25;8.60;97.00
9984;DHT22;16737;50.932;6.780;2024-03-17T07:20:53;8.60;97.10
9984;DHT22;16737;50.932;6.780;2024-03-17T07:23:22;8.70;97.10
9984;DHT22;16737;50.932;6.780;2024-03-17T07:25:53;8.80;97.20
9984;DHT22;16737;50.932;6.780;2024-03-17T07:28:23;8.80;97.20
9984;DHT22;16737;50.932;6.780;2024-03-17T07:30:52;8.90;97.20
9984;DHT22;16737;50.932;6.780;2024-03-17T07:33:21;8.90;97.30
9984;DHT22;16737;50.932;6.780;2024-03-17T07:35:50;9.00;97.30
9984;DHT22;16737;50.932;6.780;2024-03-17T07:38:18;9.10;97.40
9984;DHT22;16737;50.932;6.780;2024-03-17T07:40:55;9.20;97.40
9984;DHT22;16737;50.932;6.780;2024-03-17T07:43:25;9.20;97.50
9984;DHT22;16737;50.932;6.780;2024-03-17T07:46:00;9.40;97.50
9984;DHT22;16737;50.932;6.780;2024-03-17T07:48:28;9.40;97.60
9984;DHT22;16737;50.932;6.780;2024-03-17T07:50:56;9.50;97.60
9984;DHT22;16737;50.932;6.780;2024-03-17T07:53:24;9.60;97.70
9984;DHT22;16737;50.932;6.780;2024-03-17T07:56:00;9.70;97.90
9984;DHT22;16737;50.932;6.780;2024-03-17T07:58:31;9.80;97.60
9984;DHT22;16737;50.932;6.780;2024-03-17T08:01:00;9.90;97.60
9984;DHT22;16737;50.932;6.780;2024-03-17T08:03:28;10.00;97.20
9984;DHT22;16737;50.932;6.780;2024-03-17T08:05:57;10.10;97.30
9984;DHT22;16737;50.932;6.780;2024-03-17T08:08:24;10.30;97.30
9984;DHT22;16737;50.932;6.780;2024-03-17T08:10:52;10.40;97.40
9984;DHT22;16737;50.932;6.780;2024-03-17T08:13:20;10.50;97.30
9984;DHT22;16737;50.932;6.780;2024-03-17T08:15:56;10.60;97.20
9984;DHT22;16737;50.932;6.780;2024-03-17T08:18:24;10.80;97.10
9984;DHT22;16737;50.932;6.780;2024-03-17T08:20:53;10.80;97.00
9984;DHT22;16737;50.932;6.780;2024-03-17T08:23:21;10.90;96.90
9984;DHT22;16737;50.932;6.780;2024-03-17T08:25:52;11.00;96.80
9984;DHT22;16737;50.932;6.780;2024-03-17T08:28:20;11.00;96.70
9984;DHT22;16737;50.932;6.780;2024-03-17T08:30:56;11.10;96.70
9984;DHT22;16737;50.932;6.780;2024-03-17T08:33:24;11.10;96.90
9984;DHT22;16737;50.932;6.780;2024-03-17T08:35:55;11.10;96.60
9984;DHT22;16737;50.932;6.780;2024-03-17T08:38:23;11.20;96.70
9984;DHT22;16737;50.932;6.780;2024-03-17T08:40:51;11.20;96.80
9984;DHT22;16737;50.932;6.780;2024-03-17T08:43:19;11.20;96.80
9984;DHT22;16737;50.932;6.780;2024-03-17T08:45:55;11.30;96.80
9984;DHT22;16737;50.932;6.780;2024-03-17T08:48:25;11.40;96.70
9984;DHT22;16737;50.932;6.780;2024-03-17T08:50:54;11.40;96.70
9984;DHT22;16737;50.932;6.780;2024-03-17T08:53:22;11.40;96.60
9984;DHT22;16737;50.932;6.780;2024-03-17T08:55:50;11.50;96.60
9984;DHT22;16737;50.932;6.780;2024-03-17T08:58:17;11.50;96.50
9984;DHT22;16737;50.932;6.780;2024-03-17T09:00:44;11.50;96.40
9984;DHT22;16737;50.932;6.780;2024-03-17T09:03:13;11.60;96.40
9984;DHT22;16737;50.932;6.780;2024-03-17T09:05:42;11.60;96.50
9984;DHT22;16737;50.932;6.780;2024-03-17T09:08:16;11.60;96.60
9984;DHT22;16737;50.932;6.780;2024-03-17T09:10:46;11.70;96.70
9984;DHT22;16737;50.932;6.780;2024-03-17T09:13:15;11.70;96.70
9984;DHT22;16737;50.932;6.780;2024-03-17T09:15:50;11.80;96.60
9984;DHT22;16737;50.932;6.780;2024-03-17T09:18:19;11.80;96.50
9984;DHT22;16737;50.932;6.780;2024-03-17T09:20:54;11.90;96.60
9984;DHT22;16737;50.932;6.780;2024-03-17T09:23:22;11.90;96.50
9984;DHT22;16737;50.932;6.780;2024-03-17T09:25:55;11.90;96.50
9984;DHT22;16737;50.932;6.780;2024-03-17T09:28:24;12.00;96.50
9984;DHT22;16737;50.932;6.780;2024-03-17T09:30:51;12.00;96.50
9984;DHT22;16737;50.932;6.780;2024-03-17T09:33:20;12.00;96.50
9984;DHT22;16737;50.932;6.780;2024-03-17T09:35:57;12.10;96.50
9984;DHT22;16737;50.932;6.780;2024-03-17T09:38:26;12.10;96.40
9984;DHT22;16737;50.932;6.780;2024-03-17T09:40:54;12.20;96.50
9984;DHT22;16737;50.932;6.780;2024-03-17T09:43:24;12.30;96.60
9984;DHT22;16737;50.932;6.780;2024-03-17T09:45:52;12.30;96.70
9984;DHT22;16737;50.932;6.780;2024-03-17T09:48:25;12.40;96.80
9984;DHT22;16737;50.932;6.780;2024-03-17T09:50:55;12.50;96.80
9984;DHT22;16737;50.932;6.780;2024-03-17T09:53:24;12.60;96.90
9984;DHT22;16737;50.932;6.780;2024-03-17T09:55:57;12.70;96.80
9984;DHT22;16737;50.932;6.780;2024-03-17T09:58:26;12.80;96.70
9984;DHT22;16737;50.932;6.780;2024-03-17T10:00:53;12.90;96.80
9984;DHT22;16737;50.932;6.780;2024-03-17T10:03:40;13.00;96.70
9984;DHT22;16737;50.932;6.780;2024-03-17T10:06:11;13.10;96.30
9984;DHT22;16737;50.932;6.780;2024-03-17T10:08:43;13.10;96.50
9984;DHT22;16737;50.932;6.780;2024-03-17T10:11:12;13.20;96.50
9984;DHT22;16737;50.932;6.780;2024-03-17T10:13:41;13.30;96.50
9984;DHT22;16737;50.932;6.780;2024-03-17T10:16:21;13.30;96.40
9984;DHT22;16737;50.932;6.780;2024-03-17T10:19:06;13.40;96.30
9984;DHT22;16737;50.932;6.780;2024-03-17T10:21:36;13.40;96.20
9984;DHT22;16737;50.932;6.780;2024-03-17T10:24:09;13.50;96.50
9984;DHT22;16737;50.932;6.780;2024-03-17T10:26:41;13.50;96.40
9984;DHT22;16737;50.932;6.780;2024-03-17T10:29:23;13.60;96.90
9984;DHT22;16737;50.932;6.780;2024-03-17T10:31:52;13.70;96.40
9984;DHT22;16737;50.932;6.780;2024-03-17T10:34:23;13.70;96.60
9984;DHT22;16737;50.932;6.780;2024-03-17T10:36:51;13.80;96.50
9984;DHT22;16737;50.932;6.780;2024-03-17T10:39:26;13.90;96.60
9984;DHT22;16737;50.932;6.780;2024-03-17T10:41:59;14.00;96.60
9984;DHT22;16737;50.932;6.780;2024-03-17T10:44:28;14.10;96.50
9984;DHT22;16737;50.932;6.780;2024-03-17T10:46:56;14.20;96.60
9984;DHT22;16737;50.932;6.780;2024-03-17T10:49:30;14.30;96.60
9984;DHT22;16737;50.932;6.780;2024-03-17T10:52:00;14.40;96.50
9984;DHT22;16737;50.932;6.780;2024-03-17T10:54:30;14.40;96.50
9984;DHT22;16737;50.932;6.780;2024-03-17T10:57:07;14.50;96.50
9984;DHT22;16737;50.932;6.780;2024-03-17T10:59:48;14.60;96.10
9984;DHT22;16737;50.932;6.780;2024-03-17T11:02:21;14.70;96.20
9984;DHT22;16737;50.932;6.780;2024-03-17T11:04:57;14.70;96.00
9984;DHT22;16737;50.932;6.780;2024-03-17T11:07:26;14.80;96.20
9984;DHT22;16737;50.932;6.780;2024-03-17T11:09:58;14.90;96.40
9984;DHT22;16737;50.932;6.780;2024-03-17T11:12:42;15.00;96.40
9984;DHT22;16737;50.932;6.780;2024-03-17T11:18:41;15.30;96.30
9984;DHT22;16737;50.932;6.780;2024-03-17T11:21:21;15.40;96.20
9984;DHT22;16737;50.932;6.780;2024-03-17T11:24:01;15.60;96.00
9984;DHT22;16737;50.932;6.780;2024-03-17T11:26:32;15.70;96.10
9984;DHT22;16737;50.932;6.780;2024-03-17T11:29:01;15.80;96.30
9984;DHT22;16737;50.932;6.780;2024-03-17T11:31:40;15.80;96.30
9984;DHT22;16737;50.932;6.780;2024-03-17T11:34:25;15.90;96.60
9984;DHT22;16737;50.932;6.780;2024-03-17T11:37:01;16.10;95.60
9984;DHT22;16737;50.932;6.780;2024-03-17T11:39:51;16.20;96.10
9984;DHT22;16737;50.932;6.780;2024-03-17T11:42:22;16.30;95.40
9984;DHT22;16737;50.932;6.780;2024-03-17T11:45:03;16.30;95.80
9984;DHT22;16737;50.932;6.780;2024-03-17T11:47:34;16.40;95.60
9984;DHT22;16737;50.932;6.780;2024-03-17T11:50:04;16.50;95.70
9984;DHT22;16737;50.932;6.780;2024-03-17T11:52:35;16.50;95.50
9984;DHT22;16737;50.932;6.780;2024-03-17T11:55:02;16.60;95.40
9984;DHT22;16737;50.932;6.780;2024-03-17T11:57:30;16.50;95.40
9984;DHT22;16737;50.932;6.780;2024-03-17T11:59:57;16.60;95.40
9984;DHT22;16737;50.932;6.780;2024-03-17T12:02:26;16.60;95.20
9984;DHT22;16737;50.932;6.780;2024-03-17T12:04:54;16.60;95.20
9984;DHT22;16737;50.932;6.780;2024-03-17T12:07:24;16.60;95.20
9984;DHT22;16737;50.932;6.780;2024-03-17T12:09:53;16.60;95.20
9984;DHT22;16737;50.932;6.780;2024-03-17T12:12:23;16.60;94.90
9984;DHT22;16737;50.932;6.780;2024-03-17T12:14:57;16.60;94.90
9984;DHT22;16737;50.932;6.780;2024-03-17T12:17:24;16.60;94.90
9984;DHT22;16737;50.932;6.780;2024-03-17T12:19:52;16.60;95.00
9984;DHT22;16737;50.932;6.780;2024-03-17T12:22:19;16.60;94.90
9984;DHT22;16737;50.932;6.780;2024-03-17T12:24:48;16.60;94.80
9984;DHT22;16737;50.932;6.780;2024-03-17T12:27:19;16.60;94.80
9984;DHT22;16737;50.932;6.780;2024-03-17T12:29:48;16.60;94.60
9984;DHT22;16737;50.932;6.780;2024-03-17T12:32:16;16.60;94.80
9984;DHT22;16737;50.932;6.780;2024-03-17T12:34:47;16.60;94.70
9984;DHT22;16737;50.932;6.780;2024-03-17T12:37:17;16.60;94.60
9984;DHT22;16737;50.932;6.780;2024-03-17T12:39:45;16.60;94.50
9984;DHT22;16737;50.932;6.780;2024-03-17T12:42:13;16.60;94.50
9984;DHT22;16737;50.932;6.780;2024-03-17T12:44:50;16.50;94.40
9984;DHT22;16737;50.932;6.780;2024-03-17T12:47:19;16.50;94.20
9984;DHT22;16737;50.932;6.780;2024-03-17T12:49:48;16.50;94.50
9984;DHT22;16737;50.932;6.780;2024-03-17T12:52:22;16.60;94.50
9984;DHT22;16737;50.932;6.780;2024-03-17T12:55:00;16.50;94.20
9984;DHT22;16737;50.932;6.780;2024-03-17T12:57:46;16.50;94.10
9984;DHT22;16737;50.932;6.780;2024-03-17T13:00:34;16.50;94.40
9984;DHT22;16737;50.932;6.780;2024-03-17T13:03:03;16.50;94.30
9984;DHT22;16737;50.932;6.780;2024-03-17T13:05:31;16.50;94.30
9984;DHT22;16737;50.932;6.780;2024-03-17T13:07:59;16.60;94.30
9984;DHT22;16737;50.932;6.780;2024-03-17T13:10:27;16.50;94.30
9984;DHT22;16737;50.932;6.780;2024-03-17T13:13:01;16.50;94.20
9984;DHT22;16737;50.932;6.780;2024-03-17T13:15:29;16.50;94.10
9984;DHT22;16737;50.932;6.780;2024-03-17T13:17:59;16.40;94.20
9984;DHT22;16737;50.932;6.780;2024-03-17T13:20:26;16.40;94.10
9984;DHT22;16737;50.932;6.780;2024-03-17T13:22:54;16.40;94.10
9984;DHT22;16737;50.932;6.780;2024-03-17T13:25:22;16.40;94.10
9984;DHT22;16737;50.932;6.780;2024-03-17T13:27:52;16.40;93.90
9984;DHT22;16737;50.932;6.780;2024-03-17T13:30:21;16.30;93.90
9984;DHT22;16737;50.932;6.780;2024-03-17T13:32:49;16.30;93.90
9984;DHT22;16737;50.932;6.780;2024-03-17T13:35:25;16.20;94.00
9984;DHT22;16737;50.932;6.780;2024-03-17T13:37:54;16.20;93.90
9984;DHT22;16737;50.932;6.780;2024-03-17T13:40:25;16.20;93.90
9984;DHT22;16737;50.932;6.780;2024-03-17T13:42:55;16.20;94.00
9984;DHT22;16737;50.932;6.780;2024-03-17T13:45:29;16.20;93.90
9984;DHT22;16737;50.932;6.780;2024-03-17T13:48:02;16.20;93.80
9984;DHT22;16737;50.932;6.780;2024-03-17T13:50:32;16.20;94.00
9984;DHT22;16737;50.932;6.780;2024-03-17T13:52:59;16.20;94.00
9984;DHT22;16737;50.932;6.780;2024-03-17T13:55:29;16.20;94.10
9984;DHT22;16737;50.932;6.780;2024-03-17T13:57:57;16.20;94.10
9984;DHT22;16737;50.932;6.780;2024-03-17T14:00:26;16.20;93.90
9984;DHT22;16737;50.932;6.780;2024-03-17T14:02:55;16.10;93.90
9984;DHT22;16737;50.932;6.780;2024-03-17T14:05:25;16.20;93.90
9984;DHT22;16737;50.932;6.780;2024-03-17T14:07:55;16.20;94.10
9984;DHT22;16737;50.932;6.780;2024-03-17T14:10:23;16.20;93.90
9984;DHT22;16737;50.932;6.780;2024-03-17T14:12:51;16.20;94.00
9984;DHT22;16737;50.932;6.780;2024-03-17T14:15:19;16.20;94.00
9984;DHT22;16737;50.932;6.780;2024-03-17T14:17:47;16.20;94.00
9984;DHT22;16737;50.932;6.780;2024-03-17T14:20:16;16.20;94.00
9984;DHT22;16737;50.932;6.780;2024-03-17T14:22:45;16.30;94.10
9984;DHT22;16737;50.932;6.780;2024-03-17T14:25:20;16.30;94.00
9984;DHT22;16737;50.932;6.780;2024-03-17T14:27:48;16.30;94.00
9984;DHT22;16737;50.932;6.780;2024-03-17T14:30:17;16.40;94.10
9984;DHT22;16737;50.932;6.780;2024-03-17T14:32:46;16.50;94.00
9984;DHT22;16737;50.932;6.780;2024-03-17T14:35:15;16.40;94.10
9984;DHT22;16737;50.932;6.780;2024-03-17T14:37:46;16.50;94.10
9984;DHT22;16737;50.932;6.780;2024-03-17T14:40:15;16.60;94.30
9984;DHT22;16737;50.932;6.780;2024-03-17T14:42:48;16.60;94.20
9984;DHT22;16737;50.932;6.780;2024-03-17T14:45:16;16.70;94.30
9984;DHT22;16737;50.932;6.780;2024-03-17T14:47:43;16.80;94.30
9984;DHT22;16737;50.932;6.780;2024-03-17T14:50:11;16.90;94.30
9984;DHT22;16737;50.932;6.780;2024-03-17T14:52:38;17.00;94.30
9984;DHT22;16737;50.932;6.780;2024-03-17T14:55:07;17.10;94.40
9984;DHT22;16737;50.932;6.780;2024-03-17T14:57:36;17.20;94.20
9984;DHT22;16737;50.932;6.780;2024-03-17T15:00:07;17.30;94.30
9984;DHT22;16737;50.932;6.780;2024-03-17T15:02:41;17.40;94.10
9984;DHT22;16737;50.932;6.780;2024-03-17T15:05:08;17.40;94.00
9984;DHT22;16737;50.932;6.780;2024-03-17T15:07:36;17.50;93.90
9984;DHT22;16737;50.932;6.780;2024-03-17T15:10:04;17.50;93.70
9984;DHT22;16737;50.932;6.780;2024-03-17T15:12:32;17.50;93.50
9984;DHT22;16737;50.932;6.780;2024-03-17T15:14:59;17.60;93.40
9984;DHT22;16737;50.932;6.780;2024-03-17T15:17:27;17.50;93.20
9984;DHT22;16737;50.932;6.780;2024-03-17T15:19:54;17.50;92.90
9984;DHT22;16737;50.932;6.780;2024-03-17T15:22:22;17.50;92.80
9984;DHT22;16737;50.932;6.780;2024-03-17T15:24:48;17.50;92.60
9984;DHT22;16737;50.932;6.780;2024-03-17T15:27:15;17.40;92.50
9984;DHT22;16737;50.932;6.780;2024-03-17T15:29:42;17.40;92.50
9984;DHT22;16737;50.932;6.780;2024-03-17T15:32:09;17.30;92.50
9984;DHT22;16737;50.932;6.780;2024-03-17T15:34:39;17.30;92.40
9984;DHT22;16737;50.932;6.780;2024-03-17T15:37:07;17.20;92.30
9984;DHT22;16737;50.932;6.780;2024-03-17T15:39:34;17.20;92.60
9984;DHT22;16737;50.932;6.780;2024-03-17T15:42:02;17.20;92.40
9984;DHT22;16737;50.932;6.780;2024-03-17T15:44:31;17.10;92.30
9984;DHT22;16737;50.932;6.780;2024-03-17T15:46:59;17.10;92.20
9984;DHT22;16737;50.932;6.780;2024-03-17T15:49:29;17.10;92.30
9984;DHT22;16737;50.932;6.780;2024-03-17T15:51:57;17.10;92.40
9984;DHT22;16737;50.932;6.780;2024-03-17T15:54:25;17.10;92.30
9984;DHT22;16737;50.932;6.780;2024-03-17T15:56:53;17.10;92.20
9984;DHT22;16737;50.932;6.780;2024-03-17T15:59:21;17.10;92.00
9984;DHT22;16737;50.932;6.780;2024-03-17T16:01:48;17.10;92.30
9984;DHT22;16737;50.932;6.780;2024-03-17T16:04:18;17.10;91.90
9984;DHT22;16737;50.932;6.780;2024-03-17T16:06:50;17.10;91.90
9984;DHT22;16737;50.932;6.780;2024-03-17T16:09:19;17.10;92.00